createdAt,value
2023-01-25T00:01:08.038Z,78.57
2023-01-25T00:03:39.679Z,78.82
2023-01-25T00:06:10.926Z,78.51
2023-01-25T00:08:41.455Z,78.73
2023-01-25T00:11:12.013Z,79.03
2023-01-25T00:13:42.924Z,78.80
2023-01-25T00:16:15.391Z,79.21
2023-01-25T00:18:47.289Z,78.46
2023-01-25T00:21:24.463Z,78.38
2023-01-25T00:23:55.941Z,78.32
2023-01-25T00:26:26.538Z,78.78
2023-01-25T00:28:57.676Z,78.43
2023-01-25T00:31:38.059Z,78.82
2023-01-25T00:34:30.152Z,78.74
2023-01-25T00:37:22.372Z,78.80
2023-01-25T00:39:53.567Z,79.02
2023-01-25T00:42:24.847Z,78.69
2023-01-25T00:44:58.521Z,78.64
2023-01-25T00:47:29.171Z,78.60
2023-01-25T00:50:00.026Z,78.04
2023-01-25T00:52:30.997Z,78.04
2023-01-25T00:57:36.393Z,78.43
2023-01-25T01:00:08.419Z,78.48
2023-01-25T01:02:39.538Z,79.08
2023-01-25T01:05:10.768Z,79.05
2023-01-25T01:07:43.803Z,79.68
2023-01-25T01:10:15.837Z,79.46
2023-01-25T01:12:46.192Z,80.09
2023-01-25T01:15:16.677Z,80.23
2023-01-25T01:17:47.277Z,80.33
2023-01-25T01:20:19.464Z,80.68
2023-01-25T01:22:54.763Z,80.13
2023-01-25T01:25:25.392Z,80.34
2023-01-25T01:27:57.800Z,79.83
2023-01-25T01:30:28.059Z,80.27
2023-01-25T01:32:58.594Z,79.91
2023-01-25T01:35:31.120Z,80.11
2023-01-25T01:38:01.987Z,79.96
2023-01-25T01:40:32.457Z,79.75
2023-01-25T01:43:06.219Z,79.69
2023-01-25T01:45:49.191Z,79.30
2023-01-25T01:48:39.468Z,79.84
2023-01-25T01:51:46.286Z,80.20
2023-01-25T01:54:29.369Z,80.06
2023-01-25T01:57:17.799Z,79.90
2023-01-25T02:00:08.127Z,79.89
2023-01-25T02:02:39.000Z,80.13
2023-01-25T02:05:12.759Z,80.33
2023-01-25T02:07:44.781Z,80.53
2023-01-25T02:10:15.687Z,80.17
2023-01-25T02:12:48.069Z,79.82
2023-01-25T02:15:19.950Z,80.01
2023-01-25T02:17:52.307Z,79.60
2023-01-25T02:20:49.025Z,79.38
2023-01-25T02:23:34.349Z,79.33
2023-01-25T02:26:07.012Z,79.28
2023-01-25T02:28:52.910Z,79.36
2023-01-25T02:31:23.680Z,79.82
2023-01-25T02:33:54.391Z,79.18
2023-01-25T02:36:30.940Z,79.37
2023-01-25T02:39:06.811Z,79.41
2023-01-25T02:41:39.869Z,79.58
2023-01-25T02:44:16.730Z,79.86
2023-01-25T02:46:48.635Z,80.11
2023-01-25T02:49:19.679Z,79.54
2023-01-25T02:51:58.833Z,79.07
2023-01-25T02:54:29.420Z,79.17
2023-01-25T02:57:02.611Z,79.16
2023-01-25T02:59:33.123Z,79.48
2023-01-25T03:02:04.587Z,79.02
2023-01-25T03:04:37.692Z,79.41
2023-01-25T03:07:08.107Z,79.64
2023-01-25T03:09:40.223Z,79.71
2023-01-25T03:12:10.950Z,79.68
2023-01-25T03:14:41.415Z,79.91
2023-01-25T03:17:12.755Z,80.31
2023-01-25T03:19:43.203Z,80.40
2023-01-25T03:22:13.865Z,79.96
2023-01-25T03:24:46.019Z,80.10
2023-01-25T03:27:18.256Z,79.80
2023-01-25T03:29:49.214Z,80.02
2023-01-25T03:32:19.950Z,79.97
2023-01-25T03:34:51.016Z,80.25
2023-01-25T03:37:23.205Z,80.04
2023-01-25T03:39:53.608Z,80.54
2023-01-25T03:42:25.053Z,80.83
2023-01-25T03:44:55.499Z,80.83
2023-01-25T03:47:26.131Z,79.91
2023-01-25T03:49:56.668Z,80.07
2023-01-25T03:52:28.058Z,80.00
2023-01-25T03:54:58.518Z,79.84
2023-01-25T03:57:28.893Z,80.23
2023-01-25T03:59:59.290Z,80.21
2023-01-25T04:02:30.089Z,79.89
2023-01-25T04:05:00.618Z,80.22
2023-01-25T04:07:36.313Z,80.16
2023-01-25T04:10:07.928Z,80.14
2023-01-25T04:12:38.431Z,80.36
2023-01-25T04:15:10.593Z,80.34
2023-01-25T04:17:41.363Z,80.14
2023-01-25T04:20:14.366Z,80.57
2023-01-25T04:22:44.968Z,80.29
2023-01-25T04:25:15.602Z,80.33
2023-01-25T04:27:47.684Z,80.54
2023-01-25T04:30:19.286Z,81.16
2023-01-25T04:32:49.891Z,81.09
2023-01-25T04:35:23.390Z,81.55
2023-01-25T04:37:58.033Z,81.54
2023-01-25T04:40:28.622Z,81.38
2023-01-25T04:42:59.658Z,80.68
2023-01-25T04:45:30.339Z,80.25
2023-01-25T04:48:08.505Z,80.40
2023-01-25T04:50:40.526Z,80.79
2023-01-25T04:53:13.559Z,80.24
2023-01-25T04:55:47.614Z,79.76
2023-01-25T04:58:19.995Z,80.21
2023-01-25T05:00:52.230Z,79.99
2023-01-25T05:03:22.715Z,79.85
2023-01-25T05:05:53.214Z,79.86
2023-01-25T05:08:25.551Z,79.68
2023-01-25T05:10:56.271Z,80.27
2023-01-25T05:13:27.348Z,80.17
2023-01-25T05:15:58.784Z,79.86
2023-01-25T05:18:42.756Z,80.26
2023-01-25T05:21:04.717Z,80.96
2023-01-25T05:23:38.184Z,81.17
2023-01-25T05:26:26.898Z,81.11
2023-01-25T05:28:57.337Z,81.41
2023-01-25T05:31:27.955Z,80.58
2023-01-25T05:33:58.598Z,80.58
2023-01-25T05:36:29.192Z,80.44
2023-01-25T05:39:01.568Z,80.13
2023-01-25T05:41:33.670Z,80.37
2023-01-25T05:44:08.744Z,80.49
2023-01-25T05:46:40.722Z,80.62
2023-01-25T05:49:14.412Z,80.88
2023-01-25T05:51:45.689Z,80.87
2023-01-25T05:54:19.533Z,81.29
2023-01-25T05:56:51.652Z,81.31
2023-01-25T05:59:22.075Z,81.00
2023-01-25T06:01:54.069Z,81.52
2023-01-25T06:04:24.554Z,81.12
2023-01-25T06:06:55.707Z,81.37
2023-01-25T06:09:27.130Z,81.61
2023-01-25T06:12:00.501Z,81.02
2023-01-25T06:14:32.261Z,80.77
2023-01-25T06:17:04.795Z,80.76
2023-01-25T06:19:36.383Z,80.37
2023-01-25T06:22:09.521Z,79.85
2023-01-25T06:24:44.122Z,80.53
2023-01-25T06:27:15.045Z,80.61
2023-01-25T06:29:48.047Z,80.81
2023-01-25T06:32:18.000Z,80.92
2023-01-25T06:34:49.045Z,81.01
2023-01-25T06:37:21.322Z,80.41
2023-01-25T06:39:51.938Z,79.78
2023-01-25T06:42:26.868Z,80.24
2023-01-25T06:44:57.659Z,80.42
2023-01-25T06:47:28.132Z,80.43
2023-01-25T06:49:59.852Z,80.41
2023-01-25T06:52:31.862Z,80.19
2023-01-25T06:55:03.457Z,80.77
2023-01-25T06:57:35.522Z,80.99
2023-01-25T07:00:07.193Z,81.23
2023-01-25T07:02:38.228Z,81.12
2023-01-25T07:05:09.493Z,81.58
2023-01-25T07:07:40.683Z,81.94
2023-01-25T07:10:11.901Z,81.22
2023-01-25T07:12:42.458Z,81.78
2023-01-25T07:15:12.979Z,82.11
2023-01-25T07:17:44.213Z,82.18
2023-01-25T07:20:17.633Z,81.70
2023-01-25T07:22:48.516Z,81.57
2023-01-25T07:25:19.513Z,81.62
2023-01-25T07:27:51.753Z,81.91
2023-01-25T07:30:22.815Z,81.65
2023-01-25T07:32:56.600Z,82.00
2023-01-25T07:35:27.185Z,82.21
2023-01-25T07:37:57.694Z,82.37
2023-01-25T07:40:28.534Z,81.92
2023-01-25T07:42:59.461Z,82.33
2023-01-25T07:45:32.698Z,82.04
2023-01-25T07:48:06.218Z,82.21
2023-01-25T07:50:36.881Z,82.19
2023-01-25T07:53:07.497Z,82.44
2023-01-25T07:55:38.317Z,82.35
2023-01-25T07:58:11.663Z,82.90
2023-01-25T08:00:42.189Z,83.11
2023-01-25T08:03:14.426Z,83.29
2023-01-25T08:05:48.175Z,83.16
2023-01-25T08:08:20.176Z,82.97
2023-01-25T08:10:51.054Z,83.07
2023-01-25T08:13:25.897Z,82.86
2023-01-25T08:15:56.867Z,83.54
2023-01-25T08:18:29.668Z,83.88
2023-01-25T08:21:01.405Z,83.71
2023-01-25T08:23:32.092Z,84.13
2023-01-25T08:26:07.402Z,84.18
2023-01-25T08:28:38.090Z,84.09
2023-01-25T08:31:14.245Z,83.08
2023-01-25T08:33:46.580Z,83.40
2023-01-25T08:36:18.461Z,83.32
2023-01-25T08:38:50.088Z,83.50
2023-01-25T08:41:20.744Z,83.41
2023-01-25T08:43:53.840Z,83.56
2023-01-25T08:46:25.913Z,83.93
2023-01-25T08:48:58.282Z,84.42
2023-01-25T08:51:32.217Z,83.92
2023-01-25T08:54:08.356Z,84.09
2023-01-25T08:56:41.333Z,84.21
2023-01-25T08:59:15.261Z,84.13
2023-01-25T09:01:46.331Z,84.62
2023-01-25T09:04:19.894Z,84.84
2023-01-25T09:06:53.021Z,84.97
2023-01-25T09:09:24.990Z,84.06
2023-01-25T09:11:56.079Z,83.89
2023-01-25T09:14:26.820Z,84.04
2023-01-25T09:16:57.269Z,83.96
2023-01-25T09:19:27.771Z,84.11
2023-01-25T09:21:58.261Z,84.17
2023-01-25T09:24:28.907Z,84.77
2023-01-25T09:27:00.275Z,84.37
2023-01-25T09:29:33.766Z,84.52
2023-01-25T09:32:05.259Z,83.87
2023-01-25T09:34:37.204Z,83.67
2023-01-25T09:37:09.411Z,83.73
2023-01-25T09:39:40.053Z,83.88
2023-01-25T09:42:47.049Z,84.32
2023-01-25T09:45:26.874Z,84.30
2023-01-25T09:48:29.548Z,83.90
2023-01-25T09:51:14.919Z,83.39
2023-01-25T09:53:59.479Z,83.20
2023-01-25T09:56:37.198Z,83.28
2023-01-25T09:59:15.382Z,83.29
2023-01-25T10:01:59.127Z,83.72
2023-01-25T10:04:38.686Z,84.09
2023-01-25T10:07:29.800Z,84.37
2023-01-25T10:10:10.216Z,85.02
2023-01-25T10:12:41.628Z,84.36
2023-01-25T10:15:24.160Z,84.68
2023-01-25T10:18:09.595Z,84.74
2023-01-25T10:20:53.188Z,83.46
2023-01-25T10:23:29.728Z,83.51
2023-01-25T10:26:11.957Z,83.96
2023-01-25T10:29:04.489Z,83.89
2023-01-25T10:31:48.953Z,83.60
2023-01-25T10:34:41.401Z,83.65
2023-01-25T10:37:12.584Z,83.53
2023-01-25T10:39:46.136Z,83.94
2023-01-25T10:42:17.695Z,83.06
2023-01-25T10:44:48.300Z,83.61
2023-01-25T10:47:33.193Z,84.05
2023-01-25T10:50:04.100Z,84.00
2023-01-25T10:52:40.676Z,84.69
2023-01-25T10:55:19.861Z,84.63
2023-01-25T10:57:54.060Z,84.14
2023-01-25T11:00:41.865Z,84.52
2023-01-25T11:03:24.051Z,85.01
2023-01-25T11:05:59.296Z,84.89
2023-01-25T11:08:38.233Z,85.46
2023-01-25T11:11:17.863Z,85.23
2023-01-25T11:13:48.443Z,85.31
2023-01-25T11:16:27.670Z,84.98
2023-01-25T11:19:00.045Z,83.81
2023-01-25T11:21:33.711Z,83.98
2023-01-25T11:24:10.538Z,84.73
2023-01-25T11:26:42.467Z,84.48
2023-01-25T11:29:16.063Z,84.64
2023-01-25T11:31:58.883Z,84.50
2023-01-25T11:34:32.134Z,84.66
2023-01-25T11:37:17.937Z,83.79
2023-01-25T11:39:54.764Z,84.70
2023-01-25T11:42:37.867Z,84.13
2023-01-25T11:45:27.126Z,85.06
2023-01-25T11:48:12.921Z,84.56
2023-01-25T11:50:47.380Z,84.96
2023-01-25T11:53:25.589Z,84.86
2023-01-25T11:56:28.280Z,85.63
2023-01-25T11:59:09.304Z,84.99
2023-01-25T12:02:07.077Z,84.69
2023-01-25T12:04:49.412Z,84.52
2023-01-25T12:07:40.848Z,84.59
2023-01-25T12:10:41.023Z,84.86
2023-01-25T12:13:14.521Z,84.95
2023-01-25T12:16:11.590Z,85.06
2023-01-25T12:19:16.989Z,84.77
2023-01-25T12:21:53.526Z,85.11
2023-01-25T12:24:42.443Z,85.37
2023-01-25T12:27:34.652Z,85.86
2023-01-25T12:30:18.317Z,86.05
2023-01-25T12:33:14.048Z,86.06
2023-01-25T12:35:56.205Z,86.17
2023-01-25T12:38:35.232Z,85.75
2023-01-25T12:41:14.500Z,86.06
2023-01-25T12:43:51.428Z,86.36
2023-01-25T12:46:42.932Z,86.13
2023-01-25T12:49:16.535Z,85.87
2023-01-25T12:51:48.237Z,85.81
2023-01-25T12:54:24.629Z,85.13
2023-01-25T12:57:02.237Z,85.25
2023-01-25T12:59:54.147Z,85.21
2023-01-25T13:02:47.102Z,85.65
2023-01-25T13:05:36.673Z,84.98
2023-01-25T13:08:23.111Z,85.08
2023-01-25T13:10:52.827Z,85.29
2023-01-25T13:13:29.112Z,85.83
2023-01-25T13:16:04.314Z,85.59
2023-01-25T13:18:39.251Z,84.77
2023-01-25T13:21:11.819Z,84.63
2023-01-25T13:23:46.671Z,85.26
2023-01-25T13:26:28.269Z,85.41
2023-01-25T13:29:03.541Z,85.22
2023-01-25T13:31:59.018Z,86.02
2023-01-25T13:34:34.171Z,86.30
2023-01-25T13:37:22.798Z,85.76
2023-01-25T13:40:06.221Z,85.61
2023-01-25T13:42:39.967Z,85.49
2023-01-25T13:45:22.260Z,85.57
2023-01-25T13:48:12.434Z,85.56
2023-01-25T13:50:49.708Z,86.07
2023-01-25T13:53:24.076Z,85.87
2023-01-25T13:55:58.349Z,85.29
2023-01-25T13:58:32.446Z,85.41
2023-01-25T14:01:08.514Z,84.74
2023-01-25T14:03:49.469Z,85.05
2023-01-25T14:06:25.692Z,85.53
2023-01-25T14:08:59.053Z,85.37
2023-01-25T14:11:32.560Z,85.03
2023-01-25T14:14:07.516Z,85.74
2023-01-25T14:16:38.027Z,86.02
2023-01-25T14:19:26.609Z,86.05
2023-01-25T14:22:16.949Z,85.29
2023-01-25T14:25:11.224Z,85.20
2023-01-25T14:27:54.820Z,85.58
2023-01-25T14:30:27.804Z,85.99
2023-01-25T14:33:04.276Z,86.56
2023-01-25T14:35:54.540Z,86.13
2023-01-25T14:38:24.030Z,86.44
2023-01-25T14:40:57.617Z,86.46
2023-01-25T14:43:29.651Z,86.52
2023-01-25T14:46:00.237Z,86.35
2023-01-25T14:48:40.603Z,86.03
2023-01-25T14:51:21.470Z,86.26
2023-01-25T14:53:54.997Z,87.00
2023-01-25T14:56:31.335Z,86.87
2023-01-25T14:59:06.289Z,86.62
2023-01-25T15:01:39.841Z,86.23
2023-01-25T15:04:14.194Z,86.38
2023-01-25T15:06:50.471Z,86.69
2023-01-25T15:09:39.537Z,86.85
2023-01-25T15:12:29.456Z,87.21
2023-01-25T15:15:00.765Z,86.59
2023-01-25T15:17:48.864Z,86.74
2023-01-25T15:20:35.818Z,86.96
2023-01-25T15:23:27.247Z,86.62
2023-01-25T15:26:03.175Z,85.87
2023-01-25T15:28:34.974Z,86.49
2023-01-25T15:31:09.529Z,86.21
2023-01-25T15:33:40.524Z,86.36
2023-01-25T15:36:15.855Z,86.20
2023-01-25T15:38:46.614Z,86.54
2023-01-25T15:41:18.917Z,86.41
2023-01-25T15:43:50.645Z,86.45
2023-01-25T15:46:25.640Z,86.98
2023-01-25T15:48:56.382Z,87.20
2023-01-25T15:52:00.860Z,86.93
2023-01-25T15:54:55.926Z,87.21
2023-01-25T15:58:15.545Z,86.88
2023-01-25T16:00:45.590Z,86.71
2023-01-25T16:03:19.427Z,87.25
2023-01-25T16:05:54.403Z,87.12
2023-01-25T16:08:25.031Z,87.14
2023-01-25T16:10:56.866Z,87.45
2023-01-25T16:13:27.487Z,87.46
2023-01-25T16:16:03.461Z,87.20
2023-01-25T16:18:35.660Z,87.31
2023-01-25T16:21:08.654Z,87.02
2023-01-25T16:23:42.172Z,87.40
2023-01-25T16:26:23.599Z,87.13
2023-01-25T16:28:54.386Z,87.40
2023-01-25T16:31:32.770Z,87.64
2023-01-25T16:33:57.998Z,87.51
2023-01-25T16:36:31.319Z,87.71
2023-01-25T16:39:22.721Z,87.56
2023-01-25T16:41:56.947Z,87.68
2023-01-25T16:44:29.590Z,87.82
2023-01-25T16:47:00.538Z,88.12
2023-01-25T16:49:33.390Z,88.05
2023-01-25T16:52:04.160Z,87.93
2023-01-25T16:54:37.427Z,87.88
2023-01-25T16:57:20.247Z,87.90
2023-01-25T16:59:44.247Z,87.67
2023-01-25T17:02:15.236Z,87.13
2023-01-25T17:04:45.921Z,87.18
2023-01-25T17:07:16.932Z,87.50
2023-01-25T17:09:47.680Z,87.62
2023-01-25T17:12:18.213Z,87.85
2023-01-25T17:14:49.860Z,87.58
2023-01-25T17:17:20.518Z,87.59
2023-01-25T17:19:54.811Z,87.33
2023-01-25T17:22:25.813Z,87.11
2023-01-25T17:24:56.397Z,87.10
2023-01-25T17:27:27.309Z,86.98
2023-01-25T17:29:57.927Z,87.16
2023-01-25T17:32:28.765Z,87.70
2023-01-25T17:35:03.261Z,87.47
2023-01-25T17:37:35.482Z,87.16
2023-01-25T17:40:07.316Z,87.30
2023-01-25T17:42:39.388Z,87.27
2023-01-25T17:45:10.481Z,87.46
2023-01-25T17:47:44.688Z,87.39
2023-01-25T17:50:17.982Z,87.37
2023-01-25T17:52:49.311Z,87.86
2023-01-25T17:55:21.572Z,87.63
2023-01-25T17:57:52.744Z,88.01
2023-01-25T18:00:25.686Z,88.06
2023-01-25T18:02:56.912Z,87.96
2023-01-25T18:05:32.358Z,87.95
2023-01-25T18:08:05.836Z,87.84
2023-01-25T18:10:36.433Z,88.41
2023-01-25T18:13:07.830Z,88.74
2023-01-25T18:15:38.996Z,88.92
2023-01-25T18:18:10.967Z,88.81
2023-01-25T18:20:44.679Z,88.78
2023-01-25T18:23:15.225Z,88.87
2023-01-25T18:25:47.214Z,88.72
2023-01-25T18:28:17.676Z,88.53
2023-01-25T18:30:53.939Z,88.68
2023-01-25T18:33:27.424Z,88.67
2023-01-25T18:36:02.469Z,88.47
2023-01-25T18:38:34.405Z,88.35
2023-01-25T18:41:05.979Z,88.18
2023-01-25T18:43:38.401Z,88.21
2023-01-25T18:46:11.890Z,88.50
2023-01-25T18:48:44.025Z,88.67
2023-01-25T18:51:19.880Z,88.53
2023-01-25T18:53:53.415Z,88.72
2023-01-25T18:56:26.563Z,88.80
2023-01-25T18:58:58.892Z,88.71
2023-01-25T19:01:30.811Z,88.86
2023-01-25T19:04:02.435Z,89.02
2023-01-25T19:06:33.187Z,88.69
2023-01-25T19:09:05.277Z,88.63
2023-01-25T19:11:37.468Z,88.91
2023-01-25T19:14:10.836Z,88.49
2023-01-25T19:16:41.368Z,88.66
2023-01-25T19:19:12.050Z,88.77
2023-01-25T19:21:42.899Z,88.73
2023-01-25T19:24:19.461Z,88.47
2023-01-25T19:26:49.915Z,88.25
2023-01-25T19:29:21.892Z,87.88
2023-01-25T19:31:54.439Z,88.45
2023-01-25T19:34:28.240Z,88.43
2023-01-25T19:37:01.170Z,88.44
2023-01-25T19:39:33.192Z,88.79
2023-01-25T19:42:03.960Z,88.89
2023-01-25T19:44:36.205Z,88.72
2023-01-25T19:47:10.415Z,88.55
2023-01-25T19:49:45.126Z,88.80
2023-01-25T19:52:21.592Z,88.86
2023-01-25T19:54:52.694Z,88.76
2023-01-25T19:57:23.066Z,88.56
2023-01-25T19:59:53.523Z,88.42
2023-01-25T20:02:24.043Z,88.50
2023-01-25T20:04:55.931Z,88.87
2023-01-25T20:07:28.366Z,88.78
2023-01-25T20:10:00.410Z,88.40
2023-01-25T20:12:33.770Z,88.15
2023-01-25T20:15:11.994Z,88.36
2023-01-25T20:17:41.963Z,88.54
2023-01-25T20:20:14.203Z,88.72
2023-01-25T20:22:45.967Z,88.83
2023-01-25T20:25:18.728Z,88.51
2023-01-25T20:27:52.140Z,88.41
2023-01-25T20:30:25.711Z,88.45
2023-01-25T20:32:58.294Z,88.59
2023-01-25T20:35:30.363Z,88.83
2023-01-25T20:38:01.455Z,88.87
2023-01-25T20:40:34.635Z,88.80
2023-01-25T20:43:05.559Z,88.88
2023-01-25T20:45:37.601Z,88.84
2023-01-25T20:48:09.596Z,88.78
2023-01-25T20:50:41.157Z,88.89
2023-01-25T20:53:12.903Z,89.07
2023-01-25T20:55:45.405Z,88.92
2023-01-25T20:58:15.802Z,88.86
2023-01-25T21:00:46.289Z,88.76
2023-01-25T21:03:17.022Z,88.54
2023-01-25T21:05:59.112Z,88.63
2023-01-25T21:08:29.701Z,88.40
2023-01-25T21:11:01.949Z,88.30
2023-01-25T21:13:34.260Z,88.25
2023-01-25T21:16:10.922Z,88.05
2023-01-25T21:18:44.526Z,88.18
2023-01-25T21:21:18.059Z,88.28
2023-01-25T21:23:51.441Z,88.65
2023-01-25T21:26:24.524Z,88.66
2023-01-25T21:28:59.292Z,88.61
2023-01-25T21:31:34.491Z,88.42
2023-01-25T21:34:06.644Z,88.31
2023-01-25T21:36:37.377Z,88.11
2023-01-25T21:39:08.980Z,88.43
2023-01-25T21:41:39.697Z,88.60
2023-01-25T21:44:29.237Z,88.67
2023-01-25T21:47:27.837Z,88.55
2023-01-25T21:49:53.397Z,88.63
2023-01-25T21:52:24.024Z,88.83
2023-01-25T21:54:55.175Z,88.76
2023-01-25T21:57:28.538Z,88.68
2023-01-25T21:59:59.040Z,88.88
2023-01-25T22:02:29.564Z,88.65
2023-01-25T22:05:00.282Z,88.94
2023-01-25T22:07:33.558Z,88.89
2023-01-25T22:10:04.087Z,89.03
2023-01-25T22:12:34.860Z,89.04
2023-01-25T22:15:06.512Z,88.69
2023-01-25T22:17:37.085Z,88.83
2023-01-25T22:20:08.762Z,88.65
2023-01-25T22:22:39.481Z,88.45
2023-01-25T22:25:12.964Z,88.92
2023-01-25T22:27:49.293Z,88.89
2023-01-25T22:30:21.291Z,89.33
2023-01-25T22:32:51.718Z,88.77
2023-01-25T22:35:23.883Z,88.64
2023-01-25T22:37:54.521Z,88.51
2023-01-25T22:40:25.116Z,88.34
2023-01-25T22:42:55.629Z,88.26
2023-01-25T22:45:26.045Z,88.40
2023-01-25T22:47:56.768Z,88.00
2023-01-25T22:50:27.574Z,88.50
2023-01-25T22:52:58.311Z,88.49
2023-01-25T22:55:31.085Z,88.56
2023-01-25T22:58:03.217Z,88.67
2023-01-25T23:00:33.725Z,88.20
2023-01-25T23:03:04.955Z,88.40
2023-01-25T23:05:35.769Z,88.65
2023-01-25T23:08:06.433Z,88.54
2023-01-25T23:10:38.118Z,88.51
2023-01-25T23:13:08.757Z,88.44
2023-01-25T23:15:43.797Z,88.45
2023-01-25T23:18:32.685Z,88.61
2023-01-25T23:21:07.146Z,88.55
2023-01-25T23:23:37.719Z,88.51
2023-01-25T23:26:08.843Z,88.90
2023-01-25T23:28:40.997Z,88.81
2023-01-25T23:31:21.639Z,88.75
2023-01-25T23:33:54.897Z,88.98
2023-01-25T23:36:42.267Z,88.89
2023-01-25T23:39:13.564Z,88.76
2023-01-25T23:41:44.822Z,88.70
2023-01-25T23:44:18.602Z,88.47
2023-01-25T23:46:51.698Z,88.41
2023-01-25T23:49:22.389Z,88.30
2023-01-25T23:51:54.715Z,88.30
2023-01-25T23:54:27.004Z,88.51
2023-01-25T23:56:58.356Z,88.32
2023-01-25T23:59:29.855Z,88.09
